createdAt,value
2022-12-04T00:01:15.619Z,34.23
2022-12-04T00:03:42.344Z,32.07
2022-12-04T00:06:17.509Z,29.97
2022-12-04T00:08:45.628Z,33.83
2022-12-04T00:11:14.160Z,31.83
2022-12-04T00:13:41.235Z,29.30
2022-12-04T00:16:11.546Z,27.33
2022-12-04T00:18:38.361Z,33.03
2022-12-04T00:21:09.687Z,32.47
2022-12-04T00:23:37.305Z,33.30
2022-12-04T00:26:23.415Z,32.47
2022-12-04T00:28:50.692Z,29.37
2022-12-04T00:31:22.746Z,26.53
2022-12-04T00:33:49.324Z,28.50
2022-12-04T00:36:18.992Z,28.03
2022-12-04T00:38:46.253Z,29.07
2022-12-04T00:41:14.359Z,28.47
2022-12-04T00:43:41.332Z,30.00
2022-12-04T00:46:08.257Z,30.87
2022-12-04T00:48:35.177Z,29.37
2022-12-04T00:51:03.853Z,33.10
2022-12-04T00:53:30.833Z,33.23
2022-12-04T00:55:57.700Z,33.53
2022-12-04T00:58:25.004Z,31.80
2022-12-04T01:01:00.820Z,33.07
2022-12-04T01:03:27.364Z,33.17
2022-12-04T01:05:53.804Z,29.63
2022-12-04T01:08:20.311Z,30.03
2022-12-04T01:10:46.830Z,33.63
2022-12-04T01:13:13.332Z,32.87
2022-12-04T01:15:42.432Z,33.43
2022-12-04T01:18:12.336Z,32.33
2022-12-04T01:20:38.847Z,32.90
2022-12-04T01:23:05.474Z,30.70
2022-12-04T01:25:32.348Z,33.73
2022-12-04T01:27:58.842Z,31.13
2022-12-04T01:30:25.348Z,34.00
2022-12-04T01:32:51.823Z,32.10
2022-12-04T01:35:21.424Z,29.00
2022-12-04T01:37:47.856Z,28.83
2022-12-04T01:40:16.126Z,28.83
2022-12-04T01:42:42.588Z,31.40
2022-12-04T01:45:46.056Z,29.60
2022-12-04T01:48:25.645Z,30.03
2022-12-04T01:50:58.437Z,31.07
2022-12-04T01:53:25.624Z,29.33
2022-12-04T01:55:52.223Z,28.23
2022-12-04T01:58:23.790Z,32.23
2022-12-04T02:00:58.194Z,27.37
2022-12-04T02:06:14.590Z,29.00
2022-12-04T02:08:41.287Z,29.53
2022-12-04T02:11:30.759Z,28.87
2022-12-04T02:14:05.260Z,29.77
2022-12-04T02:16:43.585Z,28.03
2022-12-04T02:19:58.686Z,30.73
2022-12-04T02:23:08.245Z,29.93
2022-12-04T02:26:07.045Z,28.83
2022-12-04T02:28:52.781Z,32.37
2022-12-04T02:31:26.301Z,30.27
2022-12-04T02:34:16.429Z,27.27
2022-12-04T02:36:55.746Z,29.37
2022-12-04T02:39:24.244Z,30.87
2022-12-04T02:42:05.657Z,31.83
2022-12-04T02:44:49.855Z,31.67
2022-12-04T02:47:23.097Z,27.47
2022-12-04T02:49:55.569Z,31.30
2022-12-04T02:52:28.236Z,28.13
2022-12-04T02:55:01.896Z,29.73
2022-12-04T02:57:35.441Z,32.40
2022-12-04T03:00:05.628Z,27.13
2022-12-04T03:02:39.371Z,31.77
2022-12-04T03:05:12.848Z,28.33
2022-12-04T03:07:45.949Z,29.87
2022-12-04T03:10:18.307Z,30.57
2022-12-04T03:12:50.393Z,29.80
2022-12-04T03:15:42.909Z,30.20
2022-12-04T03:18:23.648Z,30.03
2022-12-04T03:20:55.028Z,30.30
2022-12-04T03:23:28.302Z,32.37
2022-12-04T03:25:58.573Z,29.33
2022-12-04T03:28:57.514Z,29.43
2022-12-04T03:31:49.142Z,30.87
2022-12-04T03:34:25.754Z,29.27
2022-12-04T03:36:57.284Z,29.73
2022-12-04T03:39:38.981Z,30.97
2022-12-04T03:42:16.074Z,28.77
2022-12-04T03:45:14.903Z,26.97
2022-12-04T03:47:51.811Z,30.60
2022-12-04T03:50:38.484Z,28.40
2022-12-04T03:53:20.045Z,30.10
2022-12-04T03:56:02.115Z,33.07
2022-12-04T03:58:32.002Z,32.13
2022-12-04T04:01:03.948Z,30.13
2022-12-04T04:03:36.861Z,33.37
2022-12-04T04:06:10.455Z,33.33
2022-12-04T04:08:42.287Z,30.63
2022-12-04T04:11:23.631Z,32.07
2022-12-04T04:14:21.108Z,34.87
2022-12-04T04:17:11.949Z,34.47
2022-12-04T04:20:00.576Z,30.53
2022-12-04T04:22:46.012Z,37.40
2022-12-04T04:25:20.666Z,34.90
2022-12-04T04:27:58.647Z,34.47
2022-12-04T04:30:29.390Z,35.20
2022-12-04T04:33:10.968Z,36.80
2022-12-04T04:35:44.712Z,37.27
2022-12-04T04:38:22.220Z,34.40
2022-12-04T04:41:01.761Z,34.17
2022-12-04T04:43:40.145Z,36.93
2022-12-04T04:46:38.594Z,33.23
2022-12-04T04:49:08.683Z,34.43
2022-12-04T04:51:35.482Z,33.30
2022-12-04T04:54:06.353Z,35.43
2022-12-04T04:56:39.220Z,34.80
2022-12-04T04:59:05.636Z,33.60
2022-12-04T05:01:32.112Z,32.73
2022-12-04T05:03:58.605Z,36.27
2022-12-04T05:06:25.086Z,37.50
2022-12-04T05:08:51.536Z,29.17
2022-12-04T05:11:17.953Z,32.77
2022-12-04T05:13:44.476Z,32.27
2022-12-04T05:16:13.704Z,30.23
2022-12-04T05:18:40.830Z,28.20
2022-12-04T05:21:08.247Z,31.40
2022-12-04T05:23:35.367Z,27.00
2022-12-04T05:26:04.589Z,26.87
2022-12-04T05:28:31.202Z,27.00
2022-12-04T05:30:59.774Z,28.40
2022-12-04T05:33:26.242Z,27.63
2022-12-04T05:36:01.034Z,27.93
2022-12-04T05:38:27.603Z,31.90
2022-12-04T05:40:54.094Z,25.70
2022-12-04T05:43:20.643Z,27.77
2022-12-04T05:45:47.097Z,26.77
2022-12-04T05:48:13.539Z,27.83
2022-12-04T05:50:39.938Z,26.60
2022-12-04T05:53:06.353Z,26.87
2022-12-04T05:55:32.855Z,25.87
2022-12-04T05:57:59.292Z,28.07
2022-12-04T06:00:26.211Z,28.60
2022-12-04T06:02:52.703Z,29.40
2022-12-04T06:05:19.307Z,25.60
2022-12-04T06:07:45.923Z,24.83
2022-12-04T06:10:12.493Z,23.73
2022-12-04T06:12:38.964Z,21.57
2022-12-04T06:15:05.867Z,23.03
2022-12-04T06:17:32.354Z,21.00
2022-12-04T06:19:59.438Z,21.47
2022-12-04T06:22:26.181Z,21.33
2022-12-04T06:24:52.562Z,22.07
2022-12-04T06:27:28.016Z,22.43
2022-12-04T06:29:55.017Z,21.77
2022-12-04T06:32:22.304Z,21.80
2022-12-04T06:34:55.162Z,20.57
2022-12-04T06:37:23.965Z,21.17
2022-12-04T06:39:51.592Z,22.27
2022-12-04T06:42:18.297Z,21.50
2022-12-04T06:44:44.744Z,21.30
2022-12-04T06:47:11.279Z,24.40
2022-12-04T06:49:37.784Z,21.00
2022-12-04T06:52:04.226Z,21.10
2022-12-04T06:54:30.705Z,19.70
2022-12-04T06:56:57.147Z,18.97
2022-12-04T06:59:23.903Z,19.50
2022-12-04T07:01:50.607Z,20.50
2022-12-04T07:04:17.167Z,20.37
2022-12-04T07:06:43.627Z,19.70
2022-12-04T07:09:14.009Z,20.77
2022-12-04T07:11:42.348Z,22.60
2022-12-04T07:14:09.591Z,23.63
2022-12-04T07:16:40.829Z,22.33
2022-12-04T07:19:09.492Z,23.03
2022-12-04T07:21:35.963Z,19.43
2022-12-04T07:24:02.432Z,20.87
2022-12-04T07:26:30.432Z,22.30
2022-12-04T07:28:58.268Z,20.17
2022-12-04T07:31:26.703Z,20.83
2022-12-04T07:33:54.451Z,20.77
2022-12-04T07:36:22.815Z,20.50
2022-12-04T07:38:50.250Z,19.80
2022-12-04T07:41:17.349Z,17.80
2022-12-04T07:43:44.414Z,20.00
2022-12-04T07:46:16.815Z,20.70
2022-12-04T07:48:43.442Z,19.60
2022-12-04T07:51:15.687Z,19.27
2022-12-04T07:53:42.970Z,21.60
2022-12-04T07:56:10.863Z,20.03
2022-12-04T07:58:37.382Z,19.70
2022-12-04T08:01:11.075Z,18.40
2022-12-04T08:03:43.538Z,19.87
2022-12-04T08:06:12.186Z,22.17
2022-12-04T08:08:39.118Z,23.00
2022-12-04T08:11:07.733Z,20.33
2022-12-04T08:13:34.998Z,22.10
2022-12-04T08:16:02.909Z,16.63
2022-12-04T08:18:29.512Z,18.57
2022-12-04T08:21:03.860Z,19.47
2022-12-04T08:23:30.356Z,20.17
2022-12-04T08:25:59.719Z,19.47
2022-12-04T08:28:26.449Z,19.23
2022-12-04T08:30:52.946Z,23.53
2022-12-04T08:33:19.523Z,20.30
2022-12-04T08:35:45.932Z,20.43
2022-12-04T08:38:12.462Z,19.03
2022-12-04T08:40:38.914Z,20.33
2022-12-04T08:43:05.757Z,21.57
2022-12-04T08:45:32.170Z,22.67
2022-12-04T08:47:58.687Z,25.80
2022-12-04T08:50:25.104Z,22.37
2022-12-04T08:52:51.535Z,22.17
2022-12-04T08:55:17.951Z,22.33
2022-12-04T08:57:44.356Z,21.40
2022-12-04T09:00:12.848Z,22.00
2022-12-04T09:02:39.280Z,21.67
2022-12-04T09:05:05.887Z,21.67
2022-12-04T09:07:32.416Z,20.80
2022-12-04T09:09:59.104Z,20.23
2022-12-04T09:12:25.632Z,23.03
2022-12-04T09:14:52.037Z,22.17
2022-12-04T09:17:18.447Z,21.43
2022-12-04T09:19:44.952Z,19.70
2022-12-04T09:22:11.432Z,20.93
2022-12-04T09:24:37.860Z,25.83
2022-12-04T09:27:04.315Z,21.67
2022-12-04T09:29:30.745Z,22.77
2022-12-04T09:31:57.153Z,22.00
2022-12-04T09:34:23.584Z,20.57
2022-12-04T09:36:50.207Z,21.23
2022-12-04T09:39:16.635Z,20.20
2022-12-04T09:41:43.065Z,22.50
2022-12-04T09:44:09.444Z,20.70
2022-12-04T09:46:50.776Z,25.17
2022-12-04T09:49:25.486Z,22.03
2022-12-04T09:51:56.465Z,19.50
2022-12-04T09:54:29.680Z,17.90
2022-12-04T09:57:03.030Z,20.20
2022-12-04T09:59:31.942Z,22.37
2022-12-04T10:02:15.847Z,22.00
2022-12-04T10:04:42.404Z,23.43
2022-12-04T10:07:41.078Z,23.07
2022-12-04T10:10:31.216Z,23.30
2022-12-04T10:13:20.961Z,24.77
2022-12-04T10:15:47.395Z,22.80
2022-12-04T10:18:38.301Z,23.77
2022-12-04T10:21:20.381Z,22.50
2022-12-04T10:23:55.117Z,23.37
2022-12-04T10:26:27.522Z,24.30
2022-12-04T10:29:02.429Z,26.77
2022-12-04T10:31:30.514Z,24.93
2022-12-04T10:34:02.661Z,25.10
2022-12-04T10:36:33.484Z,23.57
2022-12-04T10:39:19.006Z,23.43
2022-12-04T10:41:49.206Z,23.90
2022-12-04T10:44:18.108Z,24.27
2022-12-04T10:46:46.547Z,26.00
2022-12-04T10:49:19.450Z,25.37
2022-12-04T10:51:46.854Z,27.03
2022-12-04T10:54:30.988Z,27.53
2022-12-04T10:57:00.653Z,29.07
2022-12-04T10:59:28.456Z,26.53
2022-12-04T11:02:26.946Z,25.90
2022-12-04T11:05:01.838Z,26.43
2022-12-04T11:07:33.981Z,31.50
2022-12-04T11:10:17.136Z,29.83
2022-12-04T11:12:57.139Z,29.23
2022-12-04T11:15:24.231Z,31.50
2022-12-04T11:17:52.408Z,29.93
2022-12-04T11:20:25.072Z,27.40
2022-12-04T11:22:59.035Z,31.93
2022-12-04T11:25:28.680Z,30.77
2022-12-04T11:27:59.435Z,31.87
2022-12-04T11:30:32.410Z,29.73
2022-12-04T11:33:00.109Z,30.10
2022-12-04T11:35:29.822Z,35.07
2022-12-04T11:38:09.797Z,29.30
2022-12-04T11:40:36.688Z,26.53
2022-12-04T11:43:14.262Z,31.20
2022-12-04T11:45:41.704Z,32.77
2022-12-04T11:48:22.337Z,27.57
2022-12-04T11:51:26.732Z,27.93
2022-12-04T11:53:56.076Z,23.67
2022-12-04T11:56:31.622Z,27.70
2022-12-04T11:58:57.970Z,26.63
2022-12-04T12:01:30.358Z,26.73
2022-12-04T12:04:02.900Z,27.00
2022-12-04T12:06:48.041Z,23.80
2022-12-04T12:09:25.708Z,24.87
2022-12-04T12:12:03.023Z,25.03
2022-12-04T12:14:41.103Z,24.93
2022-12-04T12:17:15.260Z,25.60
2022-12-04T12:20:06.471Z,25.83
2022-12-04T12:22:51.486Z,26.93
2022-12-04T12:25:29.701Z,25.10
2022-12-04T12:28:07.924Z,27.93
2022-12-04T12:31:06.413Z,25.97
2022-12-04T12:33:43.447Z,25.13
2022-12-04T12:36:12.483Z,24.57
2022-12-04T12:38:53.966Z,25.20
2022-12-04T12:41:29.772Z,27.67
2022-12-04T12:44:21.402Z,26.20
2022-12-04T12:47:00.400Z,22.87
2022-12-04T12:49:52.719Z,26.50
2022-12-04T12:52:35.967Z,26.00
2022-12-04T12:55:25.820Z,26.93
2022-12-04T12:58:04.693Z,23.70
2022-12-04T13:00:36.725Z,25.03
2022-12-04T13:03:28.077Z,25.30
2022-12-04T13:05:59.532Z,23.73
2022-12-04T13:08:30.702Z,25.97
2022-12-04T13:11:12.275Z,24.53
2022-12-04T13:13:57.945Z,25.27
2022-12-04T13:16:31.112Z,24.70
2022-12-04T13:19:18.350Z,26.13
2022-12-04T13:22:04.989Z,23.57
2022-12-04T13:24:47.656Z,25.80
2022-12-04T13:27:23.258Z,27.17
2022-12-04T13:30:15.130Z,28.73
2022-12-04T13:33:03.585Z,26.63
2022-12-04T13:36:01.598Z,26.10
2022-12-04T13:38:55.096Z,22.67
2022-12-04T13:41:26.204Z,25.33
2022-12-04T13:43:53.845Z,26.40
2022-12-04T13:46:49.247Z,27.93
2022-12-04T13:49:15.607Z,26.60
2022-12-04T13:51:42.600Z,27.97
2022-12-04T13:54:12.023Z,25.53
2022-12-04T13:56:53.450Z,25.97
2022-12-04T13:59:29.456Z,27.30
2022-12-04T14:02:01.290Z,28.17
2022-12-04T14:04:44.368Z,27.83
2022-12-04T14:07:51.567Z,29.67
2022-12-04T14:10:18.032Z,27.73
2022-12-04T14:13:02.189Z,27.43
2022-12-04T14:15:32.337Z,31.00
2022-12-04T14:18:01.284Z,29.57
2022-12-04T14:20:30.683Z,30.07
2022-12-04T14:23:16.332Z,28.57
2022-12-04T14:25:42.813Z,30.20
2022-12-04T14:28:27.776Z,28.97
2022-12-04T14:31:20.436Z,28.63
2022-12-04T14:33:58.734Z,31.50
2022-12-04T14:36:28.782Z,26.67
2022-12-04T14:39:03.596Z,35.20
2022-12-04T14:41:30.428Z,29.57
2022-12-04T14:43:57.584Z,28.00
2022-12-04T14:46:44.619Z,28.23
2022-12-04T14:49:23.046Z,28.70
2022-12-04T14:52:18.506Z,27.60
2022-12-04T14:55:15.974Z,30.87
2022-12-04T14:57:49.529Z,27.47
2022-12-04T15:00:22.298Z,33.47
2022-12-04T15:02:56.088Z,28.63
2022-12-04T15:05:29.037Z,29.37
2022-12-04T15:08:02.602Z,28.87
2022-12-04T15:10:49.881Z,29.43
2022-12-04T15:13:27.778Z,26.47
2022-12-04T15:15:54.525Z,25.03
2022-12-04T15:18:21.360Z,26.30
2022-12-04T15:20:48.023Z,22.43
2022-12-04T15:23:17.007Z,21.00
2022-12-04T15:25:47.260Z,21.37
2022-12-04T15:28:19.435Z,19.60
2022-12-04T15:30:49.904Z,18.67
2022-12-04T15:33:26.525Z,19.37
2022-12-04T15:36:00.259Z,20.40
2022-12-04T15:38:27.112Z,19.47
2022-12-04T15:40:59.965Z,23.83
2022-12-04T15:43:32.459Z,20.20
2022-12-04T15:45:59.453Z,19.53
2022-12-04T15:48:27.970Z,19.73
2022-12-04T15:51:00.756Z,16.63
2022-12-04T15:53:31.297Z,17.90
2022-12-04T15:56:02.531Z,19.83
2022-12-04T15:58:34.508Z,19.30
2022-12-04T16:01:07.713Z,17.50
2022-12-04T16:03:47.646Z,17.97
2022-12-04T16:06:17.130Z,18.77
2022-12-04T16:08:45.860Z,17.67
2022-12-04T16:11:21.578Z,17.60
2022-12-04T16:14:08.579Z,19.07
2022-12-04T16:16:38.211Z,17.80
2022-12-04T16:19:38.618Z,19.10
2022-12-04T16:22:13.227Z,18.87
2022-12-04T16:24:39.817Z,21.07
2022-12-04T16:27:12.504Z,17.13
2022-12-04T16:29:39.041Z,21.53
2022-12-04T16:32:05.913Z,20.00
2022-12-04T16:34:32.737Z,20.73
2022-12-04T16:36:59.232Z,20.80
2022-12-04T16:39:25.676Z,24.47
2022-12-04T16:41:52.096Z,25.17
2022-12-04T16:44:18.562Z,24.77
2022-12-04T16:46:45.139Z,24.13
2022-12-04T16:49:12.973Z,21.83
2022-12-04T16:51:45.725Z,24.87
2022-12-04T16:54:13.168Z,24.67
2022-12-04T16:56:39.645Z,52.03
2022-12-04T16:59:10.435Z,35.03
2022-12-04T17:01:43.613Z,24.23
2022-12-04T17:04:10.426Z,20.83
2022-12-04T17:06:37.137Z,27.53
2022-12-04T17:09:04.413Z,21.63
2022-12-04T17:11:30.902Z,21.33
2022-12-04T17:14:07.014Z,23.17
2022-12-04T17:16:38.107Z,24.03
2022-12-04T17:19:04.928Z,25.30
2022-12-04T17:21:31.451Z,28.27
2022-12-04T17:23:57.935Z,24.40
2022-12-04T17:26:24.332Z,24.43
2022-12-04T17:28:51.001Z,27.93
2022-12-04T17:31:23.549Z,25.37
2022-12-04T17:33:50.825Z,28.83
2022-12-04T17:36:20.528Z,26.60
2022-12-04T17:38:47.318Z,24.23
2022-12-04T17:41:15.320Z,25.13
2022-12-04T17:43:43.040Z,29.20
2022-12-04T17:46:17.344Z,28.90
2022-12-04T17:48:43.805Z,24.37
2022-12-04T17:51:15.655Z,29.93
2022-12-04T17:53:42.317Z,26.93
2022-12-04T17:56:11.749Z,28.77
2022-12-04T17:58:38.552Z,30.07
2022-12-04T18:01:09.693Z,31.57
2022-12-04T18:03:36.467Z,30.67
2022-12-04T18:06:21.312Z,35.53
2022-12-04T18:08:50.281Z,30.00
2022-12-04T18:11:20.392Z,30.37
2022-12-04T18:13:49.021Z,34.60
2022-12-04T18:16:15.867Z,34.90
2022-12-04T18:18:42.525Z,32.87
2022-12-04T18:21:11.938Z,34.70
2022-12-04T18:23:44.935Z,32.27
2022-12-04T18:26:18.503Z,34.27
2022-12-04T18:28:45.720Z,30.43
2022-12-04T18:31:14.062Z,37.07
2022-12-04T18:33:42.277Z,38.37
2022-12-04T18:36:16.493Z,35.50
2022-12-04T18:38:43.704Z,27.73
2022-12-04T18:41:12.612Z,35.63
2022-12-04T18:43:41.606Z,31.13
2022-12-04T18:46:11.098Z,29.23
2022-12-04T18:48:40.109Z,32.17
2022-12-04T18:51:29.500Z,28.37
2022-12-04T18:54:00.023Z,27.93
2022-12-04T18:56:27.023Z,26.03
2022-12-04T18:59:08.636Z,29.47
2022-12-04T19:01:35.155Z,29.23
2022-12-04T19:04:06.058Z,27.77
2022-12-04T19:06:38.929Z,26.83
2022-12-04T19:09:09.216Z,26.50
2022-12-04T19:11:38.829Z,26.33
2022-12-04T19:14:14.729Z,31.60
2022-12-04T19:16:43.696Z,22.57
2022-12-04T19:19:14.006Z,22.83
2022-12-04T19:21:40.413Z,25.40
2022-12-04T19:24:07.374Z,23.20
2022-12-04T19:26:35.001Z,26.80
2022-12-04T19:29:03.192Z,27.87
2022-12-04T19:31:33.158Z,30.60
2022-12-04T19:33:59.865Z,28.60
2022-12-04T19:36:28.879Z,28.73
2022-12-04T19:38:57.368Z,25.37
2022-12-04T19:41:26.943Z,27.57
2022-12-04T19:43:56.540Z,27.10
2022-12-04T19:46:26.179Z,27.50
2022-12-04T19:48:54.681Z,29.60
2022-12-04T19:51:21.275Z,30.63
2022-12-04T19:53:48.835Z,30.53
2022-12-04T19:56:18.469Z,30.23
2022-12-04T19:58:45.269Z,35.77
2022-12-04T20:01:17.304Z,30.77
2022-12-04T20:03:44.275Z,34.33
2022-12-04T20:06:14.023Z,34.03
2022-12-04T20:08:42.088Z,33.37
2022-12-04T20:11:13.270Z,35.47
2022-12-04T20:13:40.703Z,34.00
2022-12-04T20:16:10.977Z,31.37
2022-12-04T20:18:39.228Z,33.20
2022-12-04T20:21:10.922Z,33.03
2022-12-04T20:23:42.476Z,33.47
2022-12-04T20:26:11.403Z,33.03
2022-12-04T20:28:38.480Z,31.93
2022-12-04T20:31:33.156Z,36.30
2022-12-04T20:34:01.732Z,30.93
2022-12-04T20:36:30.205Z,27.40
2022-12-04T20:38:58.388Z,27.37
2022-12-04T20:41:27.581Z,27.80
2022-12-04T20:43:54.978Z,25.77
2022-12-04T20:46:33.715Z,29.37
2022-12-04T20:49:01.948Z,27.97
2022-12-04T20:51:31.306Z,26.97
2022-12-04T20:53:59.377Z,25.40
2022-12-04T20:56:31.948Z,28.10
2022-12-04T20:59:00.646Z,23.07
2022-12-04T21:01:27.964Z,21.70
2022-12-04T21:03:54.496Z,22.40
2022-12-04T21:06:23.850Z,22.10
2022-12-04T21:08:54.605Z,22.93
2022-12-04T21:11:30.750Z,21.13
2022-12-04T21:14:16.820Z,24.63
2022-12-04T21:16:43.876Z,21.97
2022-12-04T21:19:12.193Z,23.20
2022-12-04T21:21:38.816Z,19.87
2022-12-04T21:24:07.769Z,22.20
2022-12-04T21:26:34.652Z,20.37
2022-12-04T21:29:03.486Z,20.53
2022-12-04T21:31:30.514Z,24.13
2022-12-04T21:34:01.484Z,23.80
2022-12-04T21:36:28.685Z,19.43
2022-12-04T21:38:55.758Z,19.60
2022-12-04T21:41:41.961Z,21.60
2022-12-04T21:44:11.860Z,24.37
2022-12-04T21:46:39.064Z,20.17
2022-12-04T21:49:05.858Z,21.23
2022-12-04T21:51:56.129Z,23.47
2022-12-04T21:54:19.185Z,21.70
2022-12-04T21:56:45.718Z,23.17
2022-12-04T21:59:12.288Z,20.77
2022-12-04T22:01:39.368Z,23.53
2022-12-04T22:04:06.024Z,23.73
2022-12-04T22:06:36.043Z,22.30
2022-12-04T22:09:05.952Z,24.23
2022-12-04T22:11:32.525Z,23.77
2022-12-04T22:13:59.033Z,23.43
2022-12-04T22:16:30.327Z,23.90
2022-12-04T22:18:58.858Z,21.17
2022-12-04T22:21:26.739Z,19.80
2022-12-04T22:24:01.568Z,22.00
2022-12-04T22:26:29.224Z,23.20
2022-12-04T22:28:56.161Z,21.67
2022-12-04T22:31:25.814Z,21.50
2022-12-04T22:33:54.597Z,27.90
2022-12-04T22:36:23.972Z,26.50
2022-12-04T22:39:09.898Z,26.23
2022-12-04T22:41:37.854Z,24.47
2022-12-04T22:44:04.612Z,26.73
2022-12-04T22:46:31.372Z,24.13
2022-12-04T22:48:59.349Z,21.27
2022-12-04T22:51:27.121Z,22.63
2022-12-04T22:53:55.842Z,22.50
2022-12-04T22:56:28.032Z,21.33
2022-12-04T22:58:55.157Z,23.10
2022-12-04T23:01:29.686Z,24.13
2022-12-04T23:03:56.577Z,25.60
2022-12-04T23:06:26.004Z,21.87
2022-12-04T23:09:00.486Z,25.33
2022-12-04T23:11:27.890Z,21.50
2022-12-04T23:14:02.530Z,19.13
2022-12-04T23:16:31.304Z,23.43
2022-12-04T23:18:57.996Z,22.27
2022-12-04T23:21:24.866Z,24.93
2022-12-04T23:23:53.394Z,26.37
2022-12-04T23:26:23.764Z,27.10
2022-12-04T23:28:50.445Z,22.40
2022-12-04T23:31:17.676Z,22.13
2022-12-04T23:33:44.398Z,24.50
2022-12-04T23:36:12.414Z,24.17
2022-12-04T23:38:40.497Z,24.40
2022-12-04T23:41:12.403Z,26.03
2022-12-04T23:43:40.105Z,27.60
2022-12-04T23:46:11.180Z,30.03
2022-12-04T23:48:39.847Z,23.60
2022-12-04T23:51:07.722Z,24.03
2022-12-04T23:53:34.596Z,23.03
2022-12-04T23:56:07.065Z,24.47
2022-12-04T23:58:34.634Z,24.20
